Time;durP1;ratioP1;P1;durP2;ratioP2;P2;SDS_P1;SDS_P2;PMS_P1;PMS_P2;Temp;Humidity;BMP_temperature;BMP_pressure;BME280_temperature;BME280_humidity;BME280_pressure;Samples;Min_cycle;Max_cycle;Signal;HPM_P1;HPM_P2
2021/05/29 00:01:46;;;;;;;3.07;2.80;;;;;;;16.09;45.17;97150.34;5049378;28;20661;-66
2021/05/29 00:04:11;;;;;;;3.30;2.70;;;;;;;16.08;45.10;97145.22;5051341;28;20268;-65
2021/05/29 00:06:37;;;;;;;3.53;3.10;;;;;;;16.10;45.18;97138.78;5051519;28;20202;-66
2021/05/29 00:09:03;;;;;;;4.10;2.50;;;;;;;16.11;45.36;97129.84;5033990;28;20286;-66
2021/05/29 00:11:28;;;;;;;8.97;2.57;;;;;;;16.10;45.22;97130.84;5052590;28;20581;-65
2021/05/29 00:13:54;;;;;;;2.63;2.43;;;;;;;16.08;45.45;97132.00;5043684;28;20425;-67
2021/05/29 00:16:20;;;;;;;4.13;2.63;;;;;;;16.02;45.45;97130.16;5052096;28;20198;-65
2021/05/29 00:18:45;;;;;;;3.90;2.57;;;;;;;15.95;45.66;97130.09;5051972;28;20704;-67
2021/05/29 00:21:11;;;;;;;10.93;2.70;;;;;;;15.22;47.15;97133.50;5046910;28;20267;-66
2021/05/29 00:23:37;;;;;;;17.07;2.70;;;;;;;14.96;48.04;97137.41;5049666;28;20523;-66
2021/05/29 00:26:03;;;;;;;23.90;2.80;;;;;;;15.01;48.14;97136.88;5048195;28;20195;-66
2021/05/29 00:28:28;;;;;;;3.37;2.60;;;;;;;15.18;47.41;97121.69;5052515;28;20196;-66
2021/05/29 00:30:54;;;;;;;3.40;2.30;;;;;;;15.33;47.07;97103.97;5051859;28;20429;-66
2021/05/29 00:33:19;;;;;;;5.17;2.47;;;;;;;15.54;46.75;97105.03;5052060;28;20532;-66
2021/05/29 00:35:45;;;;;;;2.33;2.13;;;;;;;15.61;46.48;97105.94;5052467;28;20724;-65
2021/05/29 00:38:11;;;;;;;2.30;2.10;;;;;;;15.65;46.35;97104.56;5051712;28;20228;-66
2021/05/29 00:40:37;;;;;;;3.03;2.73;;;;;;;15.70;46.27;97106.63;5051368;28;20229;-66
2021/05/29 00:43:04;;;;;;;3.07;2.30;;;;;;;15.70;46.41;97106.63;5051710;28;20206;-66
2021/05/29 00:45:29;;;;;;;2.90;2.50;;;;;;;15.74;46.41;97101.78;5051761;28;20446;-66
2021/05/29 00:47:55;;;;;;;2.50;2.30;;;;;;;15.69;46.43;97097.06;5051548;28;20421;-65
2021/05/29 00:50:21;;;;;;;3.30;2.53;;;;;;;15.69;46.53;97097.06;5051086;28;20626;-66
2021/05/29 00:52:47;;;;;;;3.10;2.40;;;;;;;15.69;46.45;97102.34;5051883;28;20498;-66
2021/05/29 00:55:15;;;;;;;6.20;2.90;;;;;;;15.69;46.65;97104.19;5050466;28;20807;-65
2021/05/29 00:57:45;;;;;;;2.70;2.50;;;;;;;15.65;46.67;97095.78;5047638;28;20235;-66
2021/05/29 01:00:12;;;;;;;2.83;2.63;;;;;;;15.68;46.52;97098.06;5053330;28;20885;-65
2021/05/29 01:02:38;;;;;;;2.83;2.53;;;;;;;15.67;46.61;97091.16;5055812;28;20916;-65
2021/05/29 01:05:07;;;;;;;2.77;2.57;;;;;;;15.67;46.82;97088.50;5053735;28;20539;-65
2021/05/29 01:07:33;;;;;;;4.20;2.50;;;;;;;15.72;46.64;97086.13;5050581;28;20195;-65
2021/05/29 01:09:58;;;;;;;2.93;2.70;;;;;;;15.74;46.55;97089.41;5055895;28;20479;-65
2021/05/29 01:12:24;;;;;;;3.40;2.53;;;;;;;15.75;46.67;97085.72;5056117;28;20207;-66
2021/05/29 01:14:55;;;;;;;3.63;2.73;;;;;;;15.70;47.04;97085.50;5053960;28;20213;-66
2021/05/29 01:17:22;;;;;;;8.83;2.73;;;;;;;15.69;46.86;97094.44;5054931;28;20179;-66
2021/05/29 01:19:48;;;;;;;4.37;2.50;;;;;;;15.64;47.18;97094.16;5055548;28;20425;-66
2021/05/29 01:22:14;;;;;;;3.43;2.47;;;;;;;15.60;47.49;97090.28;5051357;28;20433;-65
2021/05/29 01:24:40;;;;;;;6.00;2.87;;;;;;;15.57;47.53;97088.00;5054802;28;20207;-65
2021/05/29 01:27:07;;;;;;;3.50;2.50;;;;;;;15.44;48.01;97088.66;5050659;28;20206;-65
2021/05/29 01:29:34;;;;;;;3.10;2.60;;;;;;;15.49;47.97;97086.28;5049500;28;20429;-65
2021/05/29 01:32:05;;;;;;;7.77;2.70;;;;;;;15.45;48.03;97096.41;5055546;28;21030;-65
2021/05/29 01:34:33;;;;;;;7.53;2.47;;;;;;;15.50;48.21;97087.94;5056222;28;20430;-65
2021/05/29 01:37:02;;;;;;;4.57;3.03;;;;;;;15.53;48.06;97087.56;5057199;28;20469;-66
2021/05/29 01:39:27;;;;;;;5.43;2.83;;;;;;;15.54;48.07;97091.84;5045278;28;20999;-66
2021/05/29 01:41:53;;;;;;;3.23;2.93;;;;;;;15.54;47.96;97096.28;5043841;28;20445;-65
2021/05/29 01:44:23;;;;;;;2.87;2.67;;;;;;;15.49;48.20;97091.56;5056170;28;20206;-66
2021/05/29 01:46:51;;;;;;;3.20;2.90;;;;;;;15.25;49.22;97096.19;5051886;28;20532;-65
2021/05/29 01:49:17;;;;;;;9.90;3.20;;;;;;;15.35;48.86;97096.69;5053129;28;20457;-66
2021/05/29 01:51:43;;;;;;;5.00;2.60;;;;;;;15.23;49.42;97098.19;5062840;28;20464;-65
2021/05/29 01:54:09;;;;;;;3.60;3.03;;;;;;;15.23;49.06;97092.91;5054015;28;20494;-65
2021/05/29 01:56:35;;;;;;;3.43;3.00;;;;;;;15.16;49.83;97098.09;5053821;28;20199;-64
2021/05/29 01:59:00;;;;;;;3.50;3.20;;;;;;;15.20;49.51;97094.09;5045861;28;20780;-65
2021/05/29 02:01:26;;;;;;;3.93;2.97;;;;;;;15.17;49.67;97088.38;5055897;28;20262;-65
2021/05/29 02:03:52;;;;;;;3.50;2.87;;;;;;;15.24;49.55;97091.09;5053555;28;20737;-66
2021/05/29 02:06:17;;;;;;;3.57;3.20;;;;;;;15.28;49.35;97095.81;5053482;28;20369;-65
2021/05/29 02:08:43;;;;;;;3.30;3.00;;;;;;;15.27;49.72;97094.19;5054883;28;20183;-65
2021/05/29 02:11:09;;;;;;;6.27;3.50;;;;;;;15.23;49.71;97092.09;5054962;28;20669;-65
2021/05/29 02:13:38;;;;;;;4.30;3.20;;;;;;;15.23;49.76;97100.00;5054927;28;20218;-65
2021/05/29 02:16:05;;;;;;;4.10;3.40;;;;;;;15.12;49.92;97099.44;5036693;28;20456;-65
2021/05/29 02:18:31;;;;;;;5.20;3.67;;;;;;;15.04;50.35;97095.13;5055292;28;20425;-66
2021/05/29 02:20:59;;;;;;;4.57;3.23;;;;;;;15.04;50.49;97096.94;5047250;28;20468;-66
2021/05/29 02:23:27;;;;;;;3.40;3.10;;;;;;;15.04;50.43;97095.13;5055449;28;20674;-65
2021/05/29 02:25:56;;;;;;;3.13;2.93;;;;;;;15.07;50.42;97095.72;5051932;28;20446;-65
2021/05/29 02:28:22;;;;;;;10.10;3.53;;;;;;;15.07;50.50;97101.00;5054898;28;20908;-65
2021/05/29 02:30:49;;;;;;;4.43;3.13;;;;;;;14.75;51.37;97103.84;5054947;28;20453;-65
2021/05/29 02:33:16;;;;;;;4.37;3.40;;;;;;;14.32;52.35;97107.03;5054522;28;20433;-65
2021/05/29 02:35:41;;;;;;;5.07;3.10;;;;;;;14.65;51.75;97119.06;5054154;28;20808;-65
2021/05/29 02:38:07;;;;;;;4.03;3.50;;;;;;;14.78;51.34;97113.22;5054406;28;20429;-65
2021/05/29 02:40:33;;;;;;;4.90;3.43;;;;;;;14.90;50.97;97104.66;5054864;28;20199;-65
2021/05/29 02:42:59;;;;;;;3.53;3.23;;;;;;;14.86;50.84;97111.31;5046271;28;20625;-65
2021/05/29 02:45:25;;;;;;;5.07;3.40;;;;;;;14.93;50.82;97107.94;5053340;28;20272;-65
2021/05/29 02:47:51;;;;;;;6.60;3.37;;;;;;;14.88;50.85;97100.56;5046990;28;20552;-65
2021/05/29 02:50:16;;;;;;;4.43;3.17;;;;;;;14.88;50.86;97111.13;5053967;28;20480;-65
2021/05/29 02:52:42;;;;;;;4.40;3.37;;;;;;;14.82;51.09;97112.69;5054585;28;20198;-65
2021/05/29 02:55:11;;;;;;;3.30;3.00;;;;;;;14.83;51.00;97108.22;5053341;28;20583;-65
2021/05/29 02:57:36;;;;;;;5.80;3.73;;;;;;;14.85;50.96;97108.84;5033012;28;20418;-66
2021/05/29 03:00:08;;;;;;;5.60;3.70;;;;;;;14.82;50.98;97117.13;5050314;28;20818;-65
2021/05/29 03:02:34;;;;;;;4.30;3.20;;;;;;;14.77;50.66;97112.38;5048275;28;20210;-65
2021/05/29 03:05:00;;;;;;;3.50;3.20;;;;;;;14.65;51.55;97121.72;5050418;28;20457;-65
2021/05/29 03:07:25;;;;;;;4.40;3.50;;;;;;;14.62;51.62;97111.56;5047460;28;20198;-66
2021/05/29 03:09:51;;;;;;;5.13;3.40;;;;;;;14.62;51.55;97109.72;5033750;28;20184;-65
2021/05/29 03:12:16;;;;;;;15.63;3.70;;;;;;;14.58;51.62;97117.19;5052302;28;20190;-65
2021/05/29 03:14:42;;;;;;;3.60;3.30;;;;;;;14.56;51.65;97124.44;5053159;28;20266;-65
2021/05/29 03:17:07;;;;;;;5.03;3.57;;;;;;;14.40;52.18;97122.78;5030041;28;20214;-65
2021/05/29 03:19:33;;;;;;;4.10;3.20;;;;;;;14.52;52.00;97119.72;5028409;28;20183;-65
2021/05/29 03:21:59;;;;;;;3.90;3.33;;;;;;;14.42;52.29;97130.50;5033801;28;20202;-65
2021/05/29 03:24:24;;;;;;;4.63;3.40;;;;;;;14.08;53.40;97126.50;5033246;28;20212;-66
2021/05/29 03:26:50;;;;;;;5.93;3.53;;;;;;;13.76;54.62;97133.63;5033452;28;20666;-65
2021/05/29 03:29:16;;;;;;;4.70;3.50;;;;;;;13.53;55.68;97129.16;5033193;28;20183;-65
2021/05/29 03:31:41;;;;;;;5.10;3.63;;;;;;;13.85;54.51;97135.25;5032880;28;20221;-67
2021/05/29 03:34:07;;;;;;;9.10;3.63;;;;;;;13.92;54.30;97138.00;5031769;28;20180;-66
2021/05/29 03:36:33;;;;;;;10.40;3.77;;;;;;;13.43;55.52;97137.25;5031412;28;20219;-66
2021/05/29 03:38:58;;;;;;;8.77;3.77;;;;;;;13.45;55.47;97143.19;5031799;28;20549;-67
2021/05/29 03:41:24;;;;;;;8.77;4.10;;;;;;;12.94;57.48;97146.16;5037038;28;20196;-67
2021/05/29 03:43:50;;;;;;;4.00;3.63;;;;;;;13.45;56.30;97145.00;5031675;28;20728;-67
2021/05/29 03:46:15;;;;;;;5.37;3.90;;;;;;;13.14;56.92;97143.13;5031486;28;20245;-67
2021/05/29 03:48:41;;;;;;;6.23;4.60;;;;;;;13.16;56.40;97156.94;5032555;28;20646;-67
2021/05/29 03:51:06;;;;;;;4.90;3.80;;;;;;;13.26;55.78;97144.38;5031629;28;20294;-67
2021/05/29 03:53:32;;;;;;;4.20;3.80;;;;;;;13.30;56.23;97148.31;5031415;28;20180;-67
2021/05/29 03:55:57;;;;;;;25.33;4.73;;;;;;;13.31;56.51;97142.06;5031088;28;20214;-66
2021/05/29 03:58:23;;;;;;;5.97;4.47;;;;;;;13.56;55.62;97146.41;5032030;28;20179;-67
2021/05/29 04:00:49;;;;;;;4.50;4.10;;;;;;;13.34;56.49;97152.25;5031996;28;20199;-67
2021/05/29 04:03:14;;;;;;;7.43;3.97;;;;;;;13.57;55.58;97153.31;5038363;28;20529;-66
2021/05/29 04:05:40;;;;;;;7.10;4.60;;;;;;;13.73;55.22;97150.59;5030887;28;20200;-67
2021/05/29 04:08:05;;;;;;;4.67;4.00;;;;;;;14.10;54.13;97158.78;5031195;28;20262;-67
2021/05/29 04:10:33;;;;;;;5.90;4.10;;;;;;;14.33;53.52;97155.31;5029986;28;20190;-67
2021/05/29 04:12:59;;;;;;;4.27;3.97;;;;;;;14.47;52.99;97162.44;5030698;28;20241;-66
2021/05/29 04:15:25;;;;;;;5.90;4.00;;;;;;;14.53;52.89;97159.06;5031124;28;20798;-67
2021/05/29 04:17:51;;;;;;;3.60;3.30;;;;;;;14.59;52.68;97171.56;5032879;28;20931;-66
2021/05/29 04:20:21;;;;;;;6.33;4.00;;;;;;;14.28;53.63;97164.56;5031408;28;20505;-67
2021/05/29 04:22:47;;;;;;;6.33;4.17;;;;;;;14.51;52.98;97166.34;5030895;28;20414;-67
2021/05/29 04:25:16;;;;;;;4.30;3.90;;;;;;;14.51;53.08;97171.63;5032391;28;20493;-67
2021/05/29 04:27:42;;;;;;;4.23;3.50;;;;;;;14.41;53.10;97166.63;5036135;28;20422;-67
2021/05/29 04:30:10;;;;;;;6.67;4.73;;;;;;;14.11;54.42;97163.88;5031425;28;20421;-66
2021/05/29 04:32:35;;;;;;;4.87;4.20;;;;;;;14.18;54.21;97174.53;5030029;28;20418;-67
2021/05/29 04:35:01;;;;;;;4.67;4.20;;;;;;;14.43;53.53;97172.50;5030221;28;20415;-66
2021/05/29 04:37:26;;;;;;;4.60;4.07;;;;;;;14.04;54.60;97172.66;5031029;28;20780;-67
2021/05/29 04:39:52;;;;;;;4.40;4.10;;;;;;;14.16;54.51;97175.69;5031606;28;20483;-67
2021/05/29 04:42:18;;;;;;;5.93;4.20;;;;;;;14.17;54.69;97172.88;5029596;28;20196;-66
2021/05/29 04:44:43;;;;;;;7.30;4.90;;;;;;;14.33;54.28;97181.66;5030902;28;20632;-67
2021/05/29 04:47:09;;;;;;;4.77;3.80;;;;;;;14.60;53.50;97180.28;5032667;28;20211;-67
2021/05/29 04:49:35;;;;;;;4.77;4.13;;;;;;;14.68;52.94;97180.22;5030989;28;20324;-66
2021/05/29 04:52:00;;;;;;;6.03;4.87;;;;;;;14.86;52.46;97181.72;5031271;28;20179;-66
2021/05/29 04:54:26;;;;;;;5.60;4.53;;;;;;;14.98;52.28;97179.47;5034348;28;20214;-66
2021/05/29 04:56:52;;;;;;;4.80;4.20;;;;;;;14.74;52.92;97176.09;5031345;28;20376;-67
2021/05/29 04:59:18;;;;;;;4.00;3.70;;;;;;;15.09;51.83;97181.66;5030497;28;20433;-66
2021/05/29 05:01:43;;;;;;;5.30;4.80;;;;;;;14.75;52.34;97182.97;5030784;28;20933;-67
2021/05/29 05:04:09;;;;;;;4.73;4.17;;;;;;;14.47;53.12;97174.78;5030445;28;20564;-67
2021/05/29 05:06:35;;;;;;;3.90;3.57;;;;;;;14.90;51.91;97178.53;5030711;28;20207;-67
2021/05/29 05:09:01;;;;;;;4.23;3.90;;;;;;;14.88;51.83;97177.91;5029040;28;20188;-66
2021/05/29 05:11:26;;;;;;;6.63;3.50;;;;;;;15.33;50.63;97174.47;5030170;28;20230;-67
2021/05/29 05:13:52;;;;;;;4.83;3.90;;;;;;;15.38;50.53;97179.19;5029301;28;20264;-68
2021/05/29 05:16:18;;;;;;;4.60;3.73;;;;;;;15.34;49.96;97163.72;5030202;28;20314;-67
2021/05/29 05:18:45;;;;;;;5.37;3.70;;;;;;;15.67;49.42;97178.31;5029320;28;20180;-67
2021/05/29 05:21:10;;;;;;;3.80;3.40;;;;;;;15.91;48.73;97179.03;5033790;28;20215;-67
2021/05/29 05:23:37;;;;;;;5.50;3.30;;;;;;;15.78;47.84;97183.13;5032540;28;20482;-67
2021/05/29 05:26:03;;;;;;;4.00;3.07;;;;;;;15.66;48.02;97184.59;5037963;28;20203;-67
2021/05/29 05:28:29;;;;;;;2.87;2.63;;;;;;;16.09;47.15;97182.06;5050276;28;20465;-68
2021/05/29 05:31:00;;;;;;;3.07;2.77;;;;;;;16.12;46.54;97179.06;5035548;28;20430;-66
2021/05/29 05:33:26;;;;;;;6.20;3.03;;;;;;;16.09;47.01;97183.88;5033941;28;20418;-67
2021/05/29 05:35:53;;;;;;;3.93;2.87;;;;;;;16.36;46.59;97187.63;5034777;28;20540;-66
2021/05/29 05:38:19;;;;;;;3.97;3.10;;;;;;;16.28;47.18;97179.78;5037015;28;20956;-66
2021/05/29 05:40:45;;;;;;;5.30;3.20;;;;;;;16.46;46.64;97178.53;5034407;28;20783;-67
2021/05/29 05:43:11;;;;;;;3.30;3.00;;;;;;;16.84;45.40;97178.22;5040050;28;20433;-67
2021/05/29 05:45:37;;;;;;;2.90;2.70;;;;;;;16.82;44.27;97182.88;5036013;28;20262;-67
2021/05/29 05:48:03;;;;;;;4.17;2.67;;;;;;;17.38;43.32;97183.88;5037711;28;20180;-67
2021/05/29 05:50:29;;;;;;;2.60;2.37;;;;;;;17.51;42.59;97178.63;5040517;28;20270;-67
2021/05/29 05:52:55;;;;;;;2.97;2.50;;;;;;;17.58;42.74;97183.97;5038638;28;20437;-68
2021/05/29 05:55:20;;;;;;;3.47;2.60;;;;;;;17.57;42.20;97187.63;5040314;28;21161;-68
2021/05/29 05:57:46;;;;;;;5.60;2.20;;;;;;;17.65;41.79;97185.59;5038793;28;20195;-68
2021/05/29 06:00:15;;;;;;;4.40;2.70;;;;;;;17.81;42.01;97186.28;5041714;28;20183;-67
2021/05/29 06:02:42;;;;;;;3.37;2.80;;;;;;;17.61;42.58;97194.97;5044970;28;20175;-68
2021/05/29 06:05:08;;;;;;;3.30;2.93;;;;;;;17.81;41.16;97194.22;5054726;28;20454;-68
2021/05/29 06:07:34;;;;;;;2.90;2.60;;;;;;;17.98;41.73;97191.25;5043177;28;20460;-68
2021/05/29 06:10:00;;;;;;;3.37;3.00;;;;;;;17.88;42.39;97199.56;5036684;28;20483;-69
2021/05/29 06:12:25;;;;;;;3.30;2.87;;;;;;;17.49;43.20;97200.00;5041567;28;20748;-69
2021/05/29 06:20:19;;;;;;;5.43;3.63;;;;;;;16.89;44.68;97202.25;5053754;28;20406;-69
2021/05/29 06:22:45;;;;;;;8.10;2.57;;;;;;;17.49;42.84;97200.00;5054588;28;20567;-67
2021/05/29 06:25:14;;;;;;;10.73;2.80;;;;;;;17.50;42.76;97206.16;5052869;28;20210;-67
2021/05/29 06:27:39;;;;;;;2.93;2.67;;;;;;;18.21;41.91;97204.97;5052550;28;20545;-67
2021/05/29 06:30:07;;;;;;;4.23;2.53;;;;;;;18.38;41.49;97199.31;5036969;28;20438;-68
2021/05/29 06:32:32;;;;;;;4.03;3.07;;;;;;;18.36;40.67;97204.78;5032089;28;20180;-67
2021/05/29 06:34:59;;;;;;;4.07;3.00;;;;;;;18.58;40.07;97201.97;5039078;28;20509;-66
2021/05/29 06:37:24;;;;;;;3.30;2.60;;;;;;;18.37;40.62;97206.44;5051677;28;20273;-68
2021/05/29 06:39:51;;;;;;;3.00;2.47;;;;;;;18.50;40.17;97208.28;5046093;28;20426;-68
2021/05/29 06:42:17;;;;;;;4.73;2.90;;;;;;;19.10;38.65;97211.94;5050423;28;20260;-66
2021/05/29 06:44:42;;;;;;;4.33;2.80;;;;;;;18.96;39.15;97219.13;5052408;28;21050;-67
2021/05/29 06:47:08;;;;;;;3.33;3.00;;;;;;;19.08;38.36;97217.47;5051982;28;20226;-68
2021/05/29 06:49:38;;;;;;;3.70;3.03;;;;;;;19.29;38.88;97216.44;5044987;28;20179;-68
2021/05/29 06:52:10;;;;;;;5.13;3.03;;;;;;;19.38;38.15;97225.00;5051464;28;20209;-66
2021/05/29 06:59:48;;;;;;;3.47;2.80;;;;;;;18.21;40.28;97231.50;5052283;28;20467;-67
2021/05/29 07:02:14;;;;;;;2.97;2.70;;;;;;;17.41;41.75;97231.13;5044421;28;20872;-68
2021/05/29 07:04:40;;;;;;;4.37;2.67;;;;;;;18.17;40.39;97224.94;5045070;28;20204;-67
2021/05/29 07:07:06;;;;;;;3.80;2.90;;;;;;;18.94;39.28;97231.78;5052082;28;20789;-67
2021/05/29 07:09:32;;;;;;;2.73;2.53;;;;;;;18.60;39.72;97233.59;5052576;28;20193;-67
2021/05/29 07:11:58;;;;;;;3.60;2.30;;;;;;;18.52;39.71;97231.97;5043646;28;20199;-66
2021/05/29 07:14:23;;;;;;;3.97;2.83;;;;;;;17.11;42.83;97237.47;5039485;28;20500;-68
2021/05/29 07:16:51;;;;;;;4.27;2.90;;;;;;;18.49;40.50;97227.03;5047434;28;20204;-67
2021/05/29 07:19:17;;;;;;;2.53;2.20;;;;;;;19.10;39.27;97243.81;5052151;28;20241;-68
2021/05/29 07:21:42;;;;;;;3.30;2.57;;;;;;;19.45;38.39;97235.63;5044575;28;20932;-68
2021/05/29 07:24:08;;;;;;;7.70;2.67;;;;;;;18.97;37.97;97234.03;5048150;28;20533;-66
2021/05/29 07:26:33;;;;;;;3.53;2.63;;;;;;;19.43;37.24;97230.50;5051529;28;20203;-67
2021/05/29 07:28:59;;;;;;;3.33;3.03;;;;;;;19.43;37.28;97230.50;5045707;28;20186;-68
2021/05/29 07:31:25;;;;;;;3.07;2.50;;;;;;;19.41;36.90;97229.06;5052214;28;20192;-68
2021/05/29 07:33:54;;;;;;;4.20;3.00;;;;;;;19.87;36.73;97222.81;5051486;28;20190;-68
2021/05/29 07:36:19;;;;;;;3.30;3.00;;;;;;;20.41;36.09;97218.00;5051158;28;20198;-67
2021/05/29 07:38:45;;;;;;;4.53;2.73;;;;;;;19.35;38.10;97222.75;5051585;28;20788;-68
2021/05/29 07:41:11;;;;;;;9.70;6.13;;;;;;;20.24;36.09;97215.03;5046545;28;20274;-67
2021/05/29 07:43:37;;;;;;;5.37;2.40;;;;;;;20.68;35.41;97217.81;5048357;28;20178;-67
2021/05/29 07:46:03;;;;;;;2.70;2.03;;;;;;;20.58;35.04;97219.34;5045555;28;20449;-68
2021/05/29 07:48:30;;;;;;;4.40;2.30;;;;;;;20.48;35.71;97217.16;5051917;28;20422;-67
2021/05/29 07:51:00;;;;;;;2.63;2.27;;;;;;;21.06;34.25;97212.59;5051100;28;20406;-66
2021/05/29 07:53:32;;;;;;;2.77;2.30;;;;;;;21.00;33.34;97215.13;5035651;28;20960;-68
2021/05/29 07:56:02;;;;;;;2.80;2.53;;;;;;;21.30;33.31;97214.41;5049713;28;20438;-67
2021/05/29 07:58:28;;;;;;;3.70;2.20;;;;;;;20.47;33.71;97204.88;5047980;28;20515;-67
2021/05/29 08:00:54;;;;;;;5.40;2.60;;;;;;;20.64;33.29;97200.66;5051222;28;20468;-68
2021/05/29 08:03:22;;;;;;;4.07;2.30;;;;;;;20.44;33.57;97202.63;5051737;28;20246;-69
2021/05/29 08:05:50;;;;;;;4.73;2.50;;;;;;;20.49;33.04;97213.44;5050779;28;20866;-69
2021/05/29 08:08:15;;;;;;;3.67;2.53;;;;;;;20.29;33.06;97209.06;5047319;28;20448;-67
2021/05/29 08:10:41;;;;;;;4.30;2.77;;;;;;;20.42;32.57;97210.84;5045768;28;20433;-67
2021/05/29 08:13:07;;;;;;;5.57;2.20;;;;;;;20.81;32.29;97210.78;5052216;28;20194;-67
2021/05/29 08:15:33;;;;;;;2.90;1.93;;;;;;;20.77;31.42;97214.91;5048959;28;20552;-66
2021/05/29 08:17:58;;;;;;;5.10;2.20;;;;;;;20.22;33.38;97213.63;5051705;28;20257;-67
2021/05/29 08:20:24;;;;;;;3.93;2.00;;;;;;;19.37;33.40;97217.22;5046848;28;20178;-67
2021/05/29 08:22:50;;;;;;;2.80;2.30;;;;;;;20.00;32.29;97227.25;5041995;28;20178;-68
2021/05/29 08:25:16;;;;;;;4.33;1.93;;;;;;;19.38;33.07;97221.50;5048509;28;20453;-67
2021/05/29 08:27:44;;;;;;;5.10;2.60;;;;;;;18.68;33.80;97220.13;5050101;28;20198;-68
2021/05/29 08:30:11;;;;;;;4.40;2.00;;;;;;;19.34;32.92;97218.47;5051566;28;20488;-68
2021/05/29 08:32:36;;;;;;;5.03;2.93;;;;;;;20.75;31.10;97216.97;5052017;28;20418;-68
2021/05/29 08:35:04;;;;;;;4.70;2.60;;;;;;;20.96;30.99;97213.13;5050978;28;20409;-67
2021/05/29 08:37:30;;;;;;;4.23;2.03;;;;;;;20.71;31.45;97216.56;5051311;28;20172;-68
2021/05/29 08:39:56;;;;;;;2.13;1.90;;;;;;;20.28;31.32;97218.09;5052177;28;20423;-68
2021/05/29 08:42:22;;;;;;;2.60;1.80;;;;;;;20.90;29.96;97221.97;5053207;28;20476;-69
2021/05/29 08:44:47;;;;;;;5.37;1.70;;;;;;;20.92;29.61;97220.72;5061108;28;20198;-68
2021/05/29 08:47:13;;;;;;;2.60;2.20;;;;;;;20.50;30.09;97218.56;5050142;28;20705;-67
2021/05/29 08:49:39;;;;;;;2.77;1.90;;;;;;;20.79;30.26;97228.84;5034603;28;20274;-67
2021/05/29 08:52:07;;;;;;;2.00;1.80;;;;;;;20.68;30.72;97220.47;5050926;28;20491;-68
2021/05/29 08:54:33;;;;;;;1.87;1.63;;;;;;;21.00;30.80;97223.13;5051320;28;20175;-68
2021/05/29 08:56:59;;;;;;;4.03;2.10;;;;;;;20.72;31.21;97224.34;5051780;28;20449;-69
2021/05/29 08:59:25;;;;;;;4.23;1.90;;;;;;;20.83;30.74;97222.84;5016882;28;20187;-68
2021/05/29 09:01:54;;;;;;;6.53;2.50;;;;;;;20.85;30.93;97231.44;5051823;28;20187;-68
2021/05/29 09:04:20;;;;;;;1.90;1.80;;;;;;;21.60;30.54;97229.72;5049680;28;20466;-67
2021/05/29 09:06:46;;;;;;;3.30;2.83;;;;;;;21.36;30.66;97228.69;5049737;28;20434;-67
2021/05/29 09:09:13;;;;;;;2.57;2.37;;;;;;;21.70;30.40;97226.53;5045185;28;20187;-67
2021/05/29 09:11:53;;;;;;;5.13;1.77;;;;;;;22.14;28.95;97217.53;5034238;28;20438;-68
2021/05/29 09:14:22;;;;;;;10.13;2.17;;;;;;;20.84;30.14;97227.16;5030512;28;20426;-69
2021/05/29 09:17:07;;;;;;;3.40;2.20;;;;;;;19.62;32.33;97235.97;5030925;28;20443;-69
2021/05/29 09:19:56;;;;;;;2.73;1.63;;;;;;;20.65;31.32;97220.91;5051139;28;20808;-67
2021/05/29 09:22:36;;;;;;;4.53;1.87;;;;;;;21.46;29.26;97236.19;5050792;28;21101;-68
2021/05/29 09:25:02;;;;;;;4.87;2.03;;;;;;;21.90;28.31;97234.28;5050863;28;20832;-68
2021/05/29 09:27:28;;;;;;;3.97;2.63;;;;;;;21.75;27.74;97233.84;5052796;28;20528;-69
2021/05/29 09:29:54;;;;;;;3.50;1.97;;;;;;;21.73;27.38;97219.91;5055000;28;20183;-67
2021/05/29 09:32:19;;;;;;;1.77;1.67;;;;;;;21.45;28.72;97227.38;5055086;28;20429;-67
2021/05/29 09:34:51;;;;;;;2.20;1.70;;;;;;;22.16;28.07;97221.63;5054645;28;20591;-68
2021/05/29 09:37:26;;;;;;;2.17;1.90;;;;;;;21.91;28.02;97222.59;5050249;28;20219;-67
2021/05/29 09:40:21;;;;;;;2.60;1.80;;;;;;;22.49;26.40;97235.59;5049727;28;20448;-67
2021/05/29 09:42:48;;;;;;;7.73;1.50;;;;;;;22.38;27.27;97237.94;4991093;28;20880;-67
2021/05/29 09:45:17;;;;;;;1.93;1.60;;;;;;;22.89;26.70;97234.94;5010466;28;21001;-68
2021/05/29 09:48:23;;;;;;;4.00;2.40;;;;;;;23.22;27.14;97230.94;5011323;28;20582;-69
2021/05/29 09:51:05;;;;;;;4.23;2.10;;;;;;;22.39;28.65;97228.88;5011779;28;20929;-69
2021/05/29 09:53:45;;;;;;;2.33;1.70;;;;;;;22.13;29.30;97239.94;5004615;28;20431;-69
2021/05/29 09:56:37;;;;;;;2.33;2.10;;;;;;;21.37;30.32;97230.31;4981172;28;20447;-69
2021/05/29 09:59:07;;;;;;;2.33;2.13;;;;;;;21.00;30.92;97239.09;5009850;28;20867;-68
2021/05/29 10:01:45;;;;;;;2.50;1.73;;;;;;;21.90;30.88;97228.94;5011429;28;20435;-65
2021/05/29 10:04:26;;;;;;;4.07;2.40;;;;;;;22.54;29.30;97239.19;5010584;28;21039;-66
2021/05/29 10:07:03;;;;;;;1.90;1.80;;;;;;;22.04;29.57;97236.78;4996478;28;20950;-66
2021/05/29 10:09:29;;;;;;;3.60;2.20;;;;;;;22.47;31.33;97237.66;5001167;28;20856;-67
2021/05/29 10:11:58;;;;;;;2.33;1.90;;;;;;;22.36;29.77;97241.88;4995312;28;20435;-67
2021/05/29 10:14:23;;;;;;;5.23;1.77;;;;;;;21.29;32.61;97246.63;5011044;28;20184;-66
2021/05/29 10:16:50;;;;;;;2.50;2.30;;;;;;;20.83;32.69;97248.66;5009947;28;20471;-67
2021/05/29 10:19:21;;;;;;;3.43;2.50;;;;;;;20.99;32.59;97248.13;5025419;28;20215;-67
2021/05/29 10:21:49;;;;;;;2.50;2.30;;;;;;;20.22;34.56;97233.06;5040414;28;20813;-66
2021/05/29 10:24:15;;;;;;;4.00;2.70;;;;;;;20.38;35.41;97234.41;5043635;28;20876;-66
2021/05/29 10:26:42;;;;;;;4.77;2.60;;;;;;;20.02;35.56;97249.13;5053007;28;20450;-67
2021/05/29 10:29:12;;;;;;;4.40;2.50;;;;;;;20.22;35.11;97245.56;5053768;28;20199;-66
2021/05/29 10:31:38;;;;;;;7.40;2.20;;;;;;;20.20;35.92;97243.13;5057687;28;20430;-66
2021/05/29 10:34:06;;;;;;;4.90;2.63;;;;;;;19.19;36.04;97263.84;5059534;28;20422;-66
2021/05/29 10:36:45;;;;;;;6.83;2.47;;;;;;;20.19;35.10;97253.94;5045714;28;20528;-67
2021/05/29 10:39:23;;;;;;;3.63;2.37;;;;;;;21.01;33.38;97247.88;5038945;28;20409;-67
2021/05/29 10:41:57;;;;;;;7.10;2.80;;;;;;;21.88;32.81;97243.53;5052830;28;20433;-67
2021/05/29 10:44:41;;;;;;;3.73;2.23;;;;;;;21.67;31.66;97256.28;5034990;28;21021;-67
2021/05/29 10:47:18;;;;;;;3.13;2.30;;;;;;;21.92;30.48;97248.22;5053156;28;20492;-67
2021/05/29 10:49:57;;;;;;;3.40;1.90;;;;;;;22.15;30.69;97236.03;5053853;28;20413;-67
2021/05/29 10:52:35;;;;;;;8.90;1.87;;;;;;;22.05;29.36;97244.56;5039367;28;20474;-68
2021/05/29 10:55:16;;;;;;;1.50;1.40;;;;;;;23.45;28.89;97243.44;5055004;28;20421;-67
2021/05/29 10:57:54;;;;;;;4.50;1.93;;;;;;;24.34;27.30;97222.72;5053186;28;20415;-67
2021/05/29 11:00:35;;;;;;;3.93;3.63;;;;;;;23.73;27.01;97239.22;5054568;28;20437;-68
2021/05/29 11:03:25;;;;;;;2.80;1.60;;;;;;;22.60;26.95;97232.13;5055159;28;20516;-66
2021/05/29 11:06:01;;;;;;;1.60;1.50;;;;;;;22.81;28.27;97236.09;5051576;28;20511;-66
2021/05/29 11:08:51;;;;;;;1.77;1.30;;;;;;;23.42;25.37;97235.06;5053432;28;20920;-67
2021/05/29 11:11:36;;;;;;;3.13;1.43;;;;;;;22.43;26.20;97228.47;5044485;28;20421;-66
2021/05/29 11:14:15;;;;;;;1.23;1.13;;;;;;;23.01;26.34;97226.94;5053108;28;20909;-67
2021/05/29 11:16:53;;;;;;;6.33;1.23;;;;;;;23.36;25.37;97230.69;5052368;28;20434;-66
2021/05/29 11:19:25;;;;;;;1.43;1.30;;;;;;;23.98;23.71;97224.75;5040314;28;20418;-66
2021/05/29 11:22:11;;;;;;;2.53;1.60;;;;;;;24.67;23.89;97220.31;5036122;28;20436;-66
2021/05/29 11:24:50;;;;;;;1.70;1.30;;;;;;;22.95;25.13;97233.19;5042928;28;20465;-66
2021/05/29 11:27:18;;;;;;;1.50;1.40;;;;;;;23.27;25.25;97230.22;5052698;28;20426;-67
2021/05/29 11:29:58;;;;;;;2.40;1.50;;;;;;;23.23;25.74;97235.22;5047121;28;20425;-67
2021/05/29 11:35:16;;;;;;;7.47;1.70;;;;;;;23.44;25.25;97231.13;5050788;28;20418;-68
2021/05/29 11:37:59;;;;;;;3.40;1.20;;;;;;;22.29;25.81;97225.16;5051526;28;20421;-67
2021/05/29 11:40:53;;;;;;;2.27;1.77;;;;;;;22.14;29.12;97231.72;5019178;28;20444;-68
2021/05/29 11:43:39;;;;;;;1.67;1.47;;;;;;;22.13;26.17;97232.75;5051287;28;20442;-67
2021/05/29 11:46:08;;;;;;;3.90;1.67;;;;;;;22.04;26.98;97212.78;5051780;28;20448;-67
2021/05/29 11:48:44;;;;;;;2.67;1.40;;;;;;;20.61;27.97;97226.88;5050688;28;20497;-68
2021/05/29 11:51:14;;;;;;;1.20;1.10;;;;;;;22.46;26.23;97223.47;5033998;28;20437;-67
2021/05/29 11:53:58;;;;;;;3.43;1.27;;;;;;;22.27;26.41;97221.91;5045559;28;20422;-67